Paxico, KS

7:24 PM CDT on September 02, 2014 (GMT -0500)
WTC - Paxico | Change Station
CLOSE
Current Station
Personal Weather Station
Location: Paxico, KS
Elevation: 1007 ft
Nearby Weather Stations

Elev 1007 ft 39.07 °N, 96.17 °W | Updated 1 second ago

Clear
Clear
80.4 °F
Feels Like 83 °F
N
0.0
Wind Variable Wind from East
Gusts 0.0 mph

Today
High -- | Low -- °F
--% Chance of Precip.
Yesterday
High -- | Low -- °F
Precip. -- in
6:54 AM 7:53 PM
First Quarter, 56% visible
Pressure 29.89 in
Visibility 10.0 miles
Clouds Clear
Heat Index 83 °F
Dew Point 69 °F
Humidity 69%
Rainfall 0.01 in
Snow Depth Not available.
UV 1 out of 12
Pollen 10.00 out of 12
Air Quality Not available.
Flu Activity Not available.
METAR KMHK 022352Z 18004KT 10SM CLR 29/19 A2991 RMK AO2 SLP121 T02890194 10306 20272 55012

More Conditions Fewer Conditions

Pressure 29.89 in
Visibility 10.0 miles
Clouds Clear
Heat Index 83 °F
Dew Point 69 °F
Humidity 69%
Rainfall 0.01 in
Snow Depth Not available.
UV 1 out of 12
Pollen 10.00 out of 12
Air Quality Not available.
Flu Activity Not available.
METAR KMHK 022352Z 18004KT 10SM CLR 29/19 A2991 RMK AO2 SLP121 T02890194 10306 20272 55012

More Conditions Fewer Conditions

10-Day Weather Forecast

Almanac

Astronomy

Sep. 02, 2014 Rise Set
Actual Time 6:54 AM CDT 7:53 PM CDT
Civil Twilight 6:27 AM CDT 8:20 PM CDT
Nautical Twilight 5:54 AM CDT 8:53 PM CDT
Astronomical Twilight 5:20 AM CDT 9:26 PM CDT
Moon 2:36 PM CDT (9/2) 12:00 AM CDT (9/2)
Length of Visible Light 13h 53m
Length of Day
12h 59m
Tomorrow will be 2m 27s shorter.
First Quarter, 56% of the Moon is Illuminated
Today
First Quarter
Sep 8
Full
Sep 15
Last Quarter
Sep 24
New
Oct 1
First Quarter

Today's Extremes

State Highs State Lows

Community

WunderPhotos

Upload Photos

1,749,816 photos uploaded!

Nearby

Snow Depth

Station Depth Elevation
No new snow has been reported.

Earthquake Activity

City Distance Mag. Time & Date
No recent earthquake activity has been reported nearby.
Minimum magnitude displayed is 2.5.

Coastal Water Temperatures

Place Temperature
No Stations Reporting

Nearby Weather Stations